Time;durP1;ratioP1;P1;durP2;ratioP2;P2;SDS_P1;SDS_P2;PMS_P1;PMS_P2;Temp;Humidity;BMP_temperature;BMP_pressure;BME280_temperature;BME280_humidity;BME280_pressure;Samples;Min_cycle;Max_cycle;Signal;HPM_P1;HPM_P2
2022/04/26 03:37:22;;;;;;;19.30;14.68;;;;;;;1.51;99.96;101540.34;5049637;28;20164;-44
2022/04/26 03:39:47;;;;;;;20.58;14.93;;;;;;;1.59;99.79;101546.56;5045576;28;20689;-43
2022/04/26 03:42:13;;;;;;;20.65;15.35;;;;;;;1.52;100.00;101544.72;5051128;28;20253;-44
2022/04/26 03:44:40;;;;;;;20.80;14.85;;;;;;;1.37;99.68;101545.44;5050588;28;20447;-47
2022/04/26 03:47:06;;;;;;;20.50;14.45;;;;;;;1.31;100.00;101540.13;5051259;28;20183;-44
2022/04/26 03:49:31;;;;;;;20.52;14.35;;;;;;;1.39;100.00;101546.34;5049009;28;20290;-46
2022/04/26 03:51:57;;;;;;;20.75;13.90;;;;;;;1.41;100.00;101543.75;5051035;28;20567;-44
2022/04/26 03:54:23;;;;;;;20.05;14.38;;;;;;;1.47;99.73;101551.72;5050882;28;20183;-45
2022/04/26 03:56:49;;;;;;;21.33;14.75;;;;;;;1.33;99.91;101555.97;5050752;28;20530;-46
2022/04/26 03:59:15;;;;;;;21.17;13.80;;;;;;;1.26;99.77;101555.00;5050651;28;20581;-44
2022/04/26 04:01:40;;;;;;;21.00;14.23;;;;;;;1.22;99.90;101547.91;5050831;28;20229;-44
2022/04/26 04:04:06;;;;;;;21.75;14.70;;;;;;;1.20;100.00;101562.84;5050929;28;20282;-44
2022/04/26 04:06:31;;;;;;;19.95;14.68;;;;;;;1.15;100.00;101559.28;5050647;28;20578;-45
2022/04/26 04:08:57;;;;;;;26.90;15.15;;;;;;;1.11;100.00;101558.34;5050578;28;20207;-44
2022/04/26 04:11:23;;;;;;;19.85;14.30;;;;;;;1.14;100.00;101566.31;5065832;28;20183;-45
2022/04/26 04:13:48;;;;;;;20.63;14.95;;;;;;;1.21;100.00;101572.56;5049432;28;20240;-46
2022/04/26 04:16:14;;;;;;;19.38;13.65;;;;;;;1.17;100.00;101560.19;5050652;28;20439;-45
2022/04/26 04:21:23;;;;;;;19.85;14.38;;;;;;;1.30;100.00;101553.31;5050258;28;20218;-45
2022/04/26 04:23:49;;;;;;;24.40;14.65;;;;;;;1.22;100.00;101553.19;5050336;28;20557;-45
2022/04/26 04:26:14;;;;;;;18.92;14.18;;;;;;;1.31;100.00;101553.31;5050523;28;20192;-44
2022/04/26 04:28:39;;;;;;;18.90;14.70;;;;;;;1.44;100.00;101552.59;5050215;28;20206;-45
2022/04/26 04:31:05;;;;;;;21.58;14.30;;;;;;;1.31;100.00;101561.25;5050722;28;20258;-46
2022/04/26 04:33:31;;;;;;;18.10;13.63;;;;;;;1.54;100.00;101556.19;5050380;28;20180;-45
2022/04/26 04:35:56;;;;;;;19.77;14.05;;;;;;;1.52;100.00;101564.97;5051132;28;20676;-45
2022/04/26 04:38:22;;;;;;;16.80;12.82;;;;;;;1.85;100.00;101560.03;5048827;28;20187;-46
2022/04/26 04:40:47;;;;;;;21.38;14.95;;;;;;;2.44;100.00;101568.44;5050387;28;20215;-45
2022/04/26 04:43:13;;;;;;;20.55;14.55;;;;;;;2.98;99.34;101560.81;5050395;28;20217;-45
2022/04/26 04:45:40;;;;;;;19.48;14.43;;;;;;;3.07;96.91;101571.44;5050326;28;20172;-46
2022/04/26 04:48:06;;;;;;;19.88;13.48;;;;;;;2.91;95.53;101574.88;5049838;28;20659;-46
2022/04/26 04:50:32;;;;;;;19.20;13.35;;;;;;;3.42;94.73;101568.06;5037998;28;20222;-46
2022/04/26 04:52:58;;;;;;;16.65;13.23;;;;;;;3.31;94.05;101570.66;5030459;28;20218;-44
2022/04/26 04:55:23;;;;;;;17.27;13.20;;;;;;;3.35;93.02;101575.09;5030098;28;20671;-46
2022/04/26 04:57:49;;;;;;;19.38;14.32;;;;;;;3.95;93.16;101572.56;5030056;28;20180;-48
2022/04/26 05:00:14;;;;;;;17.58;12.50;;;;;;;4.45;91.93;101570.81;5029971;28;20175;-45
2022/04/26 05:02:40;;;;;;;21.08;14.00;;;;;;;4.56;89.35;101574.31;5030579;28;20200;-53
2022/04/26 05:05:06;;;;;;;20.95;13.23;;;;;;;4.46;89.16;101583.19;5030137;28;20176;-45
2022/04/26 05:07:31;;;;;;;16.85;12.43;;;;;;;4.74;89.08;101584.94;5030034;28;20654;-46
2022/04/26 05:09:56;;;;;;;15.35;12.43;;;;;;;4.68;88.41;101579.63;5029818;28;20196;-45
2022/04/26 05:12:22;;;;;;;15.07;12.23;;;;;;;4.88;88.62;101584.00;5030427;28;20195;-45
2022/04/26 05:14:47;;;;;;;17.63;12.63;;;;;;;4.97;88.23;101586.63;5030110;28;20168;-46
2022/04/26 05:17:13;;;;;;;17.15;13.13;;;;;;;5.12;88.30;101575.09;5030139;28;20655;-47
2022/04/26 05:19:38;;;;;;;18.88;13.07;;;;;;;5.43;88.01;101573.16;5029968;28;20258;-46
2022/04/26 05:22:10;;;;;;;20.02;14.00;;;;;;;5.49;87.71;101577.59;5029803;28;20204;-47
2022/04/26 05:24:56;;;;;;;19.17;14.25;;;;;;;5.48;88.30;101579.34;5029908;28;20531;-44
2022/04/26 05:27:22;;;;;;;19.45;13.75;;;;;;;5.88;88.59;101579.13;5030093;28;20643;-47
2022/04/26 05:29:48;;;;;;;17.15;14.13;;;;;;;6.35;88.19;101582.31;5029889;28;20184;-46
2022/04/26 05:32:21;;;;;;;18.60;15.50;;;;;;;6.64;86.79;101579.38;5029961;28;20168;-47
2022/04/26 05:34:48;;;;;;;22.65;14.85;;;;;;;7.02;86.08;101575.44;5030048;28;20283;-47
2022/04/26 05:37:13;;;;;;;17.83;14.23;;;;;;;7.34;85.42;101571.50;5029729;28;20494;-47
2022/04/26 05:39:39;;;;;;;16.77;14.48;;;;;;;7.57;84.29;101572.06;5029698;28;20575;-46
2022/04/26 05:42:05;;;;;;;18.02;14.50;;;;;;;7.86;84.13;101573.44;5029478;28;20196;-46
2022/04/26 05:44:30;;;;;;;16.00;13.45;;;;;;;7.88;83.26;101581.41;5029735;28;20187;-46
2022/04/26 05:46:55;;;;;;;19.98;13.50;;;;;;;8.23;82.63;101572.84;5029786;28;20204;-44
2022/04/26 05:49:21;;;;;;;16.88;14.25;;;;;;;8.59;81.62;101571.38;5031881;28;20207;-45
2022/04/26 05:51:49;;;;;;;16.35;14.10;;;;;;;8.93;81.33;101570.72;5050005;28;20176;-45
2022/04/26 05:54:14;;;;;;;20.55;16.17;;;;;;;8.20;82.16;101581.78;5048318;28;20187;-45
2022/04/26 05:56:42;;;;;;;20.63;16.00;;;;;;;7.95;84.60;101585.75;5051787;28;20168;-47
2022/04/26 05:59:07;;;;;;;20.70;16.75;;;;;;;8.72;85.25;101587.16;5052992;28;20191;-46
2022/04/26 06:01:33;;;;;;;18.45;16.23;;;;;;;9.05;83.35;101575.84;5052378;28;20309;-45
2022/04/26 06:03:58;;;;;;;22.40;17.15;;;;;;;9.51;81.86;101570.44;5052933;28;20175;-45
2022/04/26 06:06:25;;;;;;;22.15;16.67;;;;;;;9.70;80.50;101577.13;5053333;28;20225;-44
2022/04/26 06:08:51;;;;;;;21.65;17.27;;;;;;;9.93;80.30;101570.34;5053057;28;20202;-45
2022/04/26 06:11:16;;;;;;;23.80;18.65;;;;;;;10.21;79.09;101574.16;5053510;28;20172;-45
2022/04/26 06:13:42;;;;;;;21.45;18.40;;;;;;;10.40;77.28;101581.75;5053248;28;20201;-45
2022/04/26 06:16:07;;;;;;;20.33;16.67;;;;;;;10.73;76.66;101585.34;5053413;28;20172;-45
2022/04/26 06:18:32;;;;;;;20.08;16.95;;;;;;;10.64;75.93;101585.59;5052797;28;20241;-44
2022/04/26 06:20:58;;;;;;;19.90;17.05;;;;;;;10.94;74.58;101581.22;5053025;28;20511;-47
2022/04/26 06:23:23;;;;;;;21.95;16.80;;;;;;;11.31;72.94;101569.44;5053265;28;20184;-47
2022/04/26 06:25:49;;;;;;;18.58;15.75;;;;;;;11.03;73.25;101572.91;5053037;28;20278;-44
2022/04/26 06:28:15;;;;;;;21.17;15.65;;;;;;;10.93;72.47;101574.97;5051581;28;20709;-45
2022/04/26 06:30:41;;;;;;;19.92;16.35;;;;;;;10.32;73.95;101579.28;5052716;28;20638;-43
2022/04/26 06:33:07;;;;;;;21.08;16.08;;;;;;;10.27;74.83;101591.84;5052916;28;20178;-46
2022/04/26 06:35:32;;;;;;;18.88;15.02;;;;;;;10.35;75.21;101592.59;5068053;28;20211;-46
2022/04/26 06:37:58;;;;;;;15.35;13.40;;;;;;;11.16;73.26;101583.28;5052734;28;20240;-45
2022/04/26 06:40:25;;;;;;;16.05;13.65;;;;;;;11.69;71.52;101567.38;5052495;28;20172;-44
2022/04/26 06:42:50;;;;;;;17.05;13.90;;;;;;;12.01;69.80;101587.03;5052958;28;20198;-45
2022/04/26 06:45:15;;;;;;;17.63;14.20;;;;;;;11.47;70.04;101584.13;5052391;28;20263;-44
2022/04/26 06:47:43;;;;;;;14.20;12.70;;;;;;;11.74;69.10;101581.53;5052550;28;20195;-46
2022/04/26 06:50:08;;;;;;;16.45;13.50;;;;;;;11.78;69.02;101571.59;5052230;28;20227;-45
2022/04/26 06:52:34;;;;;;;20.38;13.80;;;;;;;11.59;69.62;101576.63;5052506;28;20266;-45
2022/04/26 06:54:59;;;;;;;14.60;13.05;;;;;;;12.28;67.75;101577.16;5052413;28;20627;-46
2022/04/26 06:57:25;;;;;;;13.95;12.27;;;;;;;11.95;66.40;101580.91;5052467;28;20246;-46
2022/04/26 06:59:50;;;;;;;13.68;12.20;;;;;;;12.13;67.07;101589.28;5052192;28;20179;-47
2022/04/26 07:02:15;;;;;;;15.35;12.77;;;;;;;12.19;66.88;101583.72;5051996;28;20219;-46
2022/04/26 07:04:41;;;;;;;14.80;12.43;;;;;;;12.78;65.19;101586.19;5051188;28;20230;-46
2022/04/26 07:07:06;;;;;;;14.45;13.05;;;;;;;12.96;64.83;101583.75;5052074;28;20194;-45
2022/04/26 07:09:32;;;;;;;16.52;12.70;;;;;;;12.76;65.51;101589.84;5051977;28;20206;-47
2022/04/26 07:11:57;;;;;;;13.48;12.10;;;;;;;12.83;66.50;101598.59;5052297;28;20194;-46
2022/04/26 07:14:22;;;;;;;14.80;13.23;;;;;;;12.22;66.63;101586.28;5052267;28;20163;-45
2022/04/26 07:16:49;;;;;;;17.88;12.60;;;;;;;13.13;65.33;101592.09;5051984;28;20245;-46
2022/04/26 07:19:17;;;;;;;13.80;12.27;;;;;;;13.63;62.41;101579.53;5052060;28;20187;-46
2022/04/26 07:21:44;;;;;;;12.52;11.25;;;;;;;13.11;62.18;101588.59;5051944;28;20211;-46
2022/04/26 07:24:12;;;;;;;11.75;10.63;;;;;;;13.06;62.99;101587.03;5051812;28;20563;-46
2022/04/26 07:26:37;;;;;;;11.82;10.00;;;;;;;13.19;61.57;101591.88;5051923;28;20306;-45
2022/04/26 07:29:03;;;;;;;11.93;9.43;;;;;;;13.19;61.27;101583.81;5051619;28;20203;-44
2022/04/26 07:31:30;;;;;;;10.48;8.70;;;;;;;12.76;60.77;101589.84;5051601;28;20163;-45
2022/04/26 07:36:40;;;;;;;9.38;8.43;;;;;;;12.89;61.28;101598.38;5051036;28;20155;-45
2022/04/26 07:39:08;;;;;;;9.15;7.80;;;;;;;12.92;60.25;101595.56;5051298;28;20195;-44
2022/04/26 07:41:34;;;;;;;8.38;7.57;;;;;;;13.20;60.69;101593.63;5051653;28;20195;-45
2022/04/26 07:44:05;;;;;;;7.82;5.85;;;;;;;14.06;57.21;101588.56;5051550;28;20190;-45
2022/04/26 07:46:34;;;;;;;6.82;6.13;;;;;;;14.13;55.74;101598.19;5049860;28;20190;-47
2022/04/26 07:49:00;;;;;;;7.47;5.95;;;;;;;13.62;55.64;101592.09;5049658;28;20191;-45
2022/04/26 07:51:26;;;;;;;5.82;5.15;;;;;;;14.02;53.19;101596.78;5051442;28;20288;-44
2022/04/26 07:53:51;;;;;;;6.20;5.70;;;;;;;14.75;52.66;101593.81;5051465;28;20202;-43
2022/04/26 07:56:17;;;;;;;6.70;5.47;;;;;;;14.23;53.02;101591.47;5051047;28;20194;-47
2022/04/26 07:58:43;;;;;;;7.05;6.40;;;;;;;14.74;52.56;101594.75;5050938;28;20641;-46
2022/04/26 08:01:12;;;;;;;9.52;6.15;;;;;;;14.29;52.19;101601.13;5050961;28;20196;-46
2022/04/26 08:03:40;;;;;;;8.50;6.45;;;;;;;14.08;54.88;101606.47;5066446;28;20213;-45
2022/04/26 08:06:06;;;;;;;6.70;6.10;;;;;;;14.39;53.95;101595.28;5051045;28;20183;-46
2022/04/26 08:08:31;;;;;;;7.18;6.47;;;;;;;14.72;53.63;101599.34;5051065;28;20203;-46
2022/04/26 08:10:58;;;;;;;7.80;6.60;;;;;;;14.17;53.04;101605.22;5050732;28;20171;-45
2022/04/26 08:13:23;;;;;;;10.77;7.55;;;;;;;14.16;53.67;101608.81;5050983;28;20191;-47
2022/04/26 08:15:48;;;;;;;8.13;5.55;;;;;;;14.08;53.44;101603.75;5050777;28;20233;-44
2022/04/26 08:18:15;;;;;;;8.48;6.55;;;;;;;13.93;53.44;101607.94;5050430;28;20191;-45
2022/04/26 08:20:41;;;;;;;8.30;6.03;;;;;;;13.55;52.60;101612.13;5050650;28;20207;-44
2022/04/26 08:23:10;;;;;;;6.63;5.93;;;;;;;13.51;52.14;101611.38;5049699;28;20204;-46
2022/04/26 08:28:19;;;;;;;6.75;5.10;;;;;;;14.72;51.38;101608.31;5050802;28;20187;-45
2022/04/26 08:30:45;;;;;;;4.75;4.18;;;;;;;14.71;49.72;101624.56;5049467;28;20183;-45
2022/04/26 08:33:10;;;;;;;5.68;5.18;;;;;;;14.88;49.94;101623.84;5050577;28;20487;-46
2022/04/26 08:35:35;;;;;;;5.00;4.45;;;;;;;14.35;48.68;101619.75;5050968;28;20163;-44
2022/04/26 08:38:01;;;;;;;5.22;4.72;;;;;;;13.88;49.20;101618.00;5050432;28;20180;-44
2022/04/26 08:40:27;;;;;;;4.63;4.22;;;;;;;14.16;48.01;101627.69;5050259;28;20178;-46
2022/04/26 08:42:52;;;;;;;5.45;4.38;;;;;;;13.94;48.46;101622.28;5050483;28;20536;-45
2022/04/26 08:45:20;;;;;;;5.43;4.93;;;;;;;13.47;49.66;101615.13;5050435;28;20167;-44
2022/04/26 08:53:21;;;;;;;6.15;5.00;;;;;;;14.40;49.37;101634.75;5050164;28;20187;-46
2022/04/26 08:55:49;;;;;;;9.82;8.25;;;;;;;13.25;57.69;101635.63;5050284;28;20175;-47
2022/04/26 08:58:15;;;;;;;7.43;6.72;;;;;;;13.24;54.92;101633.91;5049701;28;20195;-46
2022/04/26 09:01:18;;;;;;;10.35;7.80;;;;;;;13.36;55.99;101634.34;5050047;28;20252;-47
2022/04/26 09:03:56;;;;;;;8.75;7.85;;;;;;;12.99;58.23;101634.78;5049985;28;20662;-48
2022/04/26 09:06:21;;;;;;;9.93;7.97;;;;;;;13.08;58.47;101634.44;5049972;28;20551;-46
2022/04/26 09:08:48;;;;;;;9.15;8.13;;;;;;;12.79;59.42;101630.09;5049552;28;20195;-48
2022/04/26 09:11:20;;;;;;;12.02;8.63;;;;;;;12.76;60.96;101636.44;5050087;28;20170;-46
2022/04/26 09:13:45;;;;;;;7.90;7.10;;;;;;;13.16;59.54;101643.13;5049975;28;20186;-46
2022/04/26 09:16:19;;;;;;;8.88;7.30;;;;;;;12.86;59.77;101638.84;5049815;28;20175;-46
2022/04/26 09:18:56;;;;;;;9.50;7.40;;;;;;;12.50;59.94;101636.44;5049461;28;20187;-46
2022/04/26 09:21:26;;;;;;;7.15;6.47;;;;;;;12.57;58.91;101646.97;5049555;28;20249;-47
2022/04/26 09:23:52;;;;;;;7.15;6.07;;;;;;;12.75;57.45;101644.59;5050384;28;20621;-45
2022/04/26 09:26:18;;;;;;;6.63;6.03;;;;;;;12.91;56.26;101643.09;5049369;28;20259;-47
2022/04/26 09:28:50;;;;;;;8.68;5.57;;;;;;;12.74;57.05;101650.88;5048568;28;20203;-48
2022/04/26 09:31:23;;;;;;;5.68;5.18;;;;;;;12.76;56.71;101633.75;5051192;28;20167;-46
2022/04/26 09:33:52;;;;;;;6.18;5.22;;;;;;;13.01;56.00;101646.38;5054098;28;20529;-48
2022/04/26 09:36:24;;;;;;;7.10;5.22;;;;;;;12.94;55.33;101648.41;5053733;28;20278;-51
2022/04/26 09:39:00;;;;;;;7.13;4.95;;;;;;;13.15;54.82;101641.34;5053356;28;20183;-46
2022/04/26 09:41:29;;;;;;;5.68;4.97;;;;;;;13.03;54.50;101644.50;5051202;28;20716;-44
2022/04/26 09:44:03;;;;;;;5.82;4.78;;;;;;;13.09;54.50;101644.25;5053615;28;20182;-48
2022/04/26 09:46:40;;;;;;;5.30;4.80;;;;;;;13.09;53.47;101652.34;5053275;28;20584;-49
2022/04/26 09:49:09;;;;;;;5.22;4.82;;;;;;;13.18;51.95;101649.34;5053361;28;20203;-50
2022/04/26 09:51:36;;;;;;;6.00;5.32;;;;;;;12.87;54.17;101640.59;5053580;28;20179;-49
2022/04/26 09:54:02;;;;;;;7.93;5.55;;;;;;;12.75;56.02;101642.75;5053550;28;20605;-48
2022/04/26 09:56:30;;;;;;;5.85;5.07;;;;;;;13.30;55.50;101644.47;5053318;28;20250;-50
2022/04/26 09:58:58;;;;;;;8.73;6.63;;;;;;;13.09;57.18;101644.25;5052934;28;20573;-48
2022/04/26 10:01:30;;;;;;;7.82;6.38;;;;;;;12.67;59.04;101652.91;5053306;28;20723;-48
2022/04/26 10:04:02;;;;;;;7.85;6.95;;;;;;;12.67;58.53;101647.53;5053102;28;20286;-48
2022/04/26 10:06:36;;;;;;;8.57;7.72;;;;;;;12.46;60.32;101648.22;5053433;28;20171;-48
2022/04/26 10:09:03;;;;;;;11.82;7.38;;;;;;;12.53;59.47;101644.44;5052681;28;20199;-48
2022/04/26 10:11:30;;;;;;;9.25;7.68;;;;;;;12.58;61.34;101658.59;5053250;28;20164;-49
2022/04/26 10:13:57;;;;;;;10.57;7.00;;;;;;;12.64;59.04;101650.31;5052793;28;20171;-49
2022/04/26 10:16:23;;;;;;;7.88;6.75;;;;;;;12.74;58.51;101643.69;5053141;28;20234;-48
2022/04/26 10:18:50;;;;;;;8.50;7.60;;;;;;;12.50;59.28;101655.28;5052469;28;20309;-48
2022/04/26 10:21:21;;;;;;;12.98;7.93;;;;;;;12.34;60.32;101654.91;5051689;28;20203;-50
2022/04/26 10:24:02;;;;;;;8.85;7.97;;;;;;;12.56;59.55;101650.56;5053033;28;20203;-50
2022/04/26 10:26:28;;;;;;;8.63;6.30;;;;;;;12.72;57.16;101652.72;5052745;28;20168;-48
2022/04/26 10:28:59;;;;;;;8.20;7.25;;;;;;;12.80;58.88;101653.34;5052275;28;20188;-48
2022/04/26 10:32:00;;;;;;;9.32;7.95;;;;;;;12.35;63.78;101657.53;5052933;28;20160;-50
2022/04/26 10:34:29;;;;;;;9.48;7.32;;;;;;;12.61;61.96;101652.22;5051386;28;20198;-48
2022/04/26 10:36:56;;;;;;;8.70;7.80;;;;;;;12.81;61.56;101655.09;5051451;28;20171;-51
2022/04/26 10:39:25;;;;;;;9.10;8.05;;;;;;;12.69;63.39;101653.72;5051955;28;20217;-51
2022/04/26 10:41:53;;;;;;;10.18;8.15;;;;;;;12.87;62.82;101656.72;5052451;28;20241;-50
2022/04/26 10:44:22;;;;;;;9.60;8.70;;;;;;;12.64;63.91;101669.16;5052349;28;20174;-48
2022/04/26 10:46:55;;;;;;;9.50;8.40;;;;;;;12.71;64.74;101662.63;5052642;28;20654;-48
2022/04/26 10:49:26;;;;;;;9.20;8.30;;;;;;;12.60;64.47;101661.22;5052277;28;20257;-49
2022/04/26 10:51:56;;;;;;;10.60;8.73;;;;;;;12.41;66.70;101666.31;5052340;28;20520;-50
2022/04/26 10:54:45;;;;;;;8.65;7.75;;;;;;;12.49;64.16;101661.59;5052424;28;20209;-50
2022/04/26 10:57:18;;;;;;;8.43;6.97;;;;;;;12.64;61.06;101661.06;5048747;28;20678;-49
2022/04/26 10:59:59;;;;;;;10.18;7.80;;;;;;;13.04;60.98;101659.69;5052336;28;20199;-48
2022/04/26 11:02:26;;;;;;;8.68;7.88;;;;;;;12.94;60.81;101655.56;5052183;28;20649;-48
2022/04/26 11:04:57;;;;;;;8.63;7.75;;;;;;;12.85;62.67;101662.13;5067584;28;20266;-48
2022/04/26 11:07:25;;;;;;;9.85;8.85;;;;;;;12.33;64.56;101672.84;5052279;28;20662;-48
2022/04/26 11:09:53;;;;;;;10.15;8.88;;;;;;;12.41;63.60;101669.00;5051852;28;20199;-48
2022/04/26 11:12:23;;;;;;;12.02;9.60;;;;;;;12.47;64.43;101663.44;5051744;28;20663;-50
2022/04/26 11:14:51;;;;;;;9.55;8.60;;;;;;;12.77;63.79;101665.09;5051892;28;20183;-50
2022/04/26 11:17:17;;;;;;;10.38;8.57;;;;;;;12.64;63.90;101665.56;5052120;28;20172;-49
2022/04/26 11:19:54;;;;;;;12.40;10.07;;;;;;;12.32;66.84;101665.69;5050308;28;20719;-48
2022/04/26 11:22:21;;;;;;;10.00;9.02;;;;;;;12.34;67.09;101669.19;5052132;28;20205;-47
2022/04/26 11:30:45;;;;;;;8.10;6.97;;;;;;;12.86;58.38;101666.59;5051418;28;20306;-48
2022/04/26 11:33:15;;;;;;;9.27;6.38;;;;;;;12.98;56.23;101659.91;5050783;28;20191;-49
2022/04/26 11:35:42;;;;;;;11.63;8.50;;;;;;;12.92;59.60;101678.94;5051832;28;20171;-47
2022/04/26 11:38:13;;;;;;;10.60;7.75;;;;;;;12.77;61.25;101666.94;5051383;28;20701;-50
2022/04/26 11:40:50;;;;;;;8.73;7.28;;;;;;;12.87;60.07;101668.34;5050333;28;20159;-48
2022/04/26 11:43:24;;;;;;;10.43;6.93;;;;;;;12.89;57.78;101673.69;5051547;28;20213;-49
2022/04/26 11:45:51;;;;;;;10.30;9.40;;;;;;;12.25;67.15;101682.94;5052048;28;20167;-48
2022/04/26 11:48:19;;;;;;;12.52;10.15;;;;;;;11.93;70.55;101695.53;5051061;28;20199;-48
2022/04/26 11:50:48;;;;;;;11.55;10.45;;;;;;;12.00;72.63;101690.88;5051797;28;20272;-48
2022/04/26 11:53:16;;;;;;;11.43;10.40;;;;;;;12.23;71.16;101691.97;5050582;28;20183;-48
2022/04/26 11:55:51;;;;;;;11.82;10.70;;;;;;;11.92;70.83;101691.13;5049956;28;20700;-48
2022/04/26 11:58:21;;;;;;;16.55;10.90;;;;;;;11.83;72.78;101698.50;5049344;28;20225;-50
2022/04/26 12:01:02;;;;;;;12.40;11.20;;;;;;;11.78;72.98;101690.59;5051119;28;20265;-49
2022/04/26 12:03:32;;;;;;;14.55;11.30;;;;;;;11.49;73.92;101695.00;5051158;28;20167;-47
2022/04/26 12:06:03;;;;;;;13.88;10.85;;;;;;;11.33;75.92;101701.72;5050908;28;20494;-50
2022/04/26 12:08:35;;;;;;;12.82;11.23;;;;;;;11.67;75.80;101695.41;5050897;28;20265;-49
2022/04/26 12:11:16;;;;;;;10.82;9.82;;;;;;;11.62;74.69;101689.28;5051119;28;20684;-50
2022/04/26 12:13:42;;;;;;;10.68;9.43;;;;;;;12.02;70.61;101683.63;5051314;28;20638;-50
2022/04/26 12:16:18;;;;;;;11.90;7.30;;;;;;;12.36;64.80;101687.97;5050820;28;20179;-49
2022/04/26 12:18:48;;;;;;;10.80;9.68;;;;;;;11.90;69.72;101690.28;5050838;28;20219;-49
2022/04/26 12:21:14;;;;;;;11.30;10.20;;;;;;;11.14;72.93;101707.56;5050503;28;20295;-49
2022/04/26 12:23:39;;;;;;;10.95;9.60;;;;;;;11.27;72.69;101701.88;5050824;28;20171;-49
2022/04/26 12:26:07;;;;;;;11.05;10.00;;;;;;;11.63;71.03;101705.38;5050487;28;20262;-48
2022/04/26 12:28:44;;;;;;;10.23;9.25;;;;;;;11.92;68.75;101695.59;5050549;28;20454;-49
2022/04/26 12:31:26;;;;;;;10.27;9.23;;;;;;;12.01;68.42;101691.78;5049187;28;20186;-49
2022/04/26 12:34:15;;;;;;;11.23;9.77;;;;;;;12.17;67.65;101695.72;5049403;28;20171;-49
2022/04/26 12:36:55;;;;;;;9.75;8.77;;;;;;;12.52;65.91;101682.97;5050239;28;20171;-47
2022/04/26 12:39:22;;;;;;;9.95;9.05;;;;;;;12.09;67.68;101712.09;5050267;28;20186;-47
2022/04/26 12:41:53;;;;;;;13.38;10.63;;;;;;;12.14;67.93;101691.34;5049924;28;20656;-49
2022/04/26 12:44:20;;;;;;;11.75;10.55;;;;;;;11.86;67.67;101704.69;5050307;28;20655;-48
2022/04/26 12:52:37;;;;;;;11.95;9.93;;;;;;;11.61;69.64;101699.16;5050372;28;20187;-48
2022/04/26 12:55:03;;;;;;;9.63;8.52;;;;;;;11.81;68.39;101695.91;5048936;28;20641;-49
2022/04/26 12:57:28;;;;;;;11.68;8.55;;;;;;;12.13;65.92;101694.97;5050191;28;20517;-49
2022/04/26 12:59:54;;;;;;;10.15;9.23;;;;;;;12.09;65.26;101689.69;5049612;28;20211;-48
2022/04/26 13:02:19;;;;;;;13.05;10.02;;;;;;;11.81;69.12;101695.03;5050263;28;20207;-47
2022/04/26 13:04:44;;;;;;;10.48;9.48;;;;;;;12.11;69.43;101695.91;5050052;28;20183;-48
2022/04/26 13:07:10;;;;;;;9.93;9.02;;;;;;;12.01;67.60;101707.88;5050114;28;20174;-47
2022/04/26 13:09:35;;;;;;;9.90;8.70;;;;;;;12.32;64.79;101689.88;5049882;28;20619;-49
2022/04/26 13:12:01;;;;;;;11.57;9.52;;;;;;;12.23;66.86;101692.84;5065587;28;20182;-49
2022/04/26 13:14:27;;;;;;;10.55;8.82;;;;;;;11.96;67.70;101689.22;5050197;28;20266;-50
2022/04/26 13:16:52;;;;;;;9.50;8.25;;;;;;;12.04;65.70;101683.59;5049794;28;20163;-48
2022/04/26 13:19:18;;;;;;;9.05;8.15;;;;;;;12.29;64.86;101687.28;5049874;28;20686;-47
2022/04/26 13:21:43;;;;;;;8.98;7.15;;;;;;;12.30;62.87;101689.03;5049787;28;20218;-49
2022/04/26 13:24:10;;;;;;;7.90;7.20;;;;;;;12.29;63.38;101686.41;5050102;28;20634;-48
2022/04/26 13:26:36;;;;;;;9.63;7.70;;;;;;;12.28;61.45;101688.19;5049941;28;20191;-47
2022/04/26 13:29:03;;;;;;;9.13;8.25;;;;;;;12.55;64.04;101690.94;5049774;28;20194;-48
2022/04/26 13:31:29;;;;;;;8.27;7.50;;;;;;;12.34;62.95;101689.84;5050062;28;20175;-47
2022/04/26 13:33:56;;;;;;;7.30;6.60;;;;;;;12.07;64.18;101686.19;5049885;28;20556;-48
2022/04/26 13:36:21;;;;;;;8.63;6.63;;;;;;;12.39;63.19;101695.94;5049707;28;20285;-50
2022/04/26 13:38:47;;;;;;;7.10;5.80;;;;;;;12.08;61.22;101693.34;5049893;28;20790;-48
2022/04/26 13:41:12;;;;;;;6.00;5.45;;;;;;;12.24;61.07;101694.59;5048552;28;20271;-48
2022/04/26 13:43:41;;;;;;;6.55;5.18;;;;;;;12.11;59.96;101685.16;5049700;28;20642;-47
2022/04/26 13:46:07;;;;;;;5.80;5.30;;;;;;;12.35;58.76;101679.03;5049828;28;20183;-48
2022/04/26 13:48:32;;;;;;;5.43;4.85;;;;;;;12.33;57.73;101680.91;5040372;28;20211;-45
2022/04/26 13:50:57;;;;;;;5.40;4.85;;;;;;;12.28;59.11;101676.59;5045165;28;20160;-47
2022/04/26 13:53:23;;;;;;;8.45;4.50;;;;;;;12.15;57.23;101685.03;5030056;28;20207;-46
2022/04/26 13:55:48;;;;;;;6.15;4.50;;;;;;;12.12;56.13;101682.44;5030034;28;20184;-46
2022/04/26 13:58:13;;;;;;;3.85;3.55;;;;;;;12.41;53.52;101679.75;5030036;28;20273;-47
2022/04/26 14:00:39;;;;;;;7.68;3.65;;;;;;;12.51;53.56;101678.53;5029653;28;20227;-47
2022/04/26 14:03:06;;;;;;;4.50;4.07;;;;;;;12.31;53.22;101684.53;5030131;28;20254;-46
2022/04/26 14:05:31;;;;;;;4.25;3.72;;;;;;;12.26;53.01;101686.50;5029567;28;20550;-46
2022/04/26 14:07:56;;;;;;;5.57;4.25;;;;;;;11.94;56.03;101680.34;5030010;28;20201;-47
2022/04/26 14:10:22;;;;;;;4.13;3.70;;;;;;;12.20;55.29;101690.28;5029657;28;20267;-47
2022/04/26 14:12:47;;;;;;;5.05;3.53;;;;;;;12.28;55.18;101682.84;5030597;28;20156;-49
2022/04/26 14:23:29;;;;;;;6.25;3.60;;;;;;;12.38;52.78;101674.50;5033345;28;20207;-48
2022/04/26 14:25:54;;;;;;;4.00;2.70;;;;;;;12.80;49.82;101674.00;5033164;28;20663;-48
2022/04/26 14:28:20;;;;;;;5.25;3.10;;;;;;;12.83;49.52;101676.56;5033291;28;20198;-46
2022/04/26 14:30:45;;;;;;;3.33;2.88;;;;;;;12.66;48.37;101679.81;5032934;28;20178;-46
2022/04/26 14:33:11;;;;;;;4.70;3.22;;;;;;;12.63;51.14;101686.19;5033203;28;20172;-46
2022/04/26 14:35:36;;;;;;;4.72;3.03;;;;;;;13.05;48.00;101672.19;5033218;28;20597;-47
2022/04/26 14:38:01;;;;;;;5.30;3.42;;;;;;;12.68;50.75;101678.88;5033027;28;20603;-48
2022/04/26 14:40:27;;;;;;;7.45;3.05;;;;;;;13.10;49.94;101685.53;5032897;28;20207;-48
2022/04/26 14:42:54;;;;;;;5.03;3.42;;;;;;;12.72;49.63;101683.19;5032991;28;20215;-46
2022/04/26 14:45:20;;;;;;;3.80;3.40;;;;;;;12.49;50.71;101689.34;5033176;28;20172;-49
2022/04/26 14:47:46;;;;;;;5.22;3.00;;;;;;;12.66;49.36;101683.41;5031481;28;20658;-49
2022/04/26 14:50:11;;;;;;;4.10;3.70;;;;;;;12.82;48.87;101680.22;5032501;28;20204;-47
2022/04/26 14:52:37;;;;;;;5.82;3.70;;;;;;;13.06;50.52;101681.19;5032600;28;20179;-46
2022/04/26 14:55:04;;;;;;;3.90;3.60;;;;;;;12.66;51.28;101683.41;5032842;28;20703;-48
2022/04/26 14:57:30;;;;;;;4.57;3.78;;;;;;;12.38;50.75;101685.25;5031350;28;20175;-46
2022/04/26 14:59:55;;;;;;;4.35;3.97;;;;;;;12.30;51.54;101686.34;5032244;28;20184;-48
2022/04/26 15:02:21;;;;;;;4.63;4.22;;;;;;;12.33;50.63;101694.34;5032616;28;20222;-47
2022/04/26 15:04:47;;;;;;;5.90;4.03;;;;;;;12.34;53.76;101684.47;5032695;28;20171;-48
2022/04/26 15:07:13;;;;;;;4.13;3.75;;;;;;;12.34;53.74;101690.69;5032499;28;20575;-49
2022/04/26 15:09:47;;;;;;;4.72;4.13;;;;;;;12.45;53.55;101686.81;5032055;28;20192;-47
2022/04/26 15:17:48;;;;;;;5.30;4.00;;;;;;;12.76;50.51;101698.28;5032503;28;20203;-47
2022/04/26 15:20:15;;;;;;;5.82;4.43;;;;;;;12.95;49.95;101690.50;5031719;28;20242;-52
2022/04/26 15:22:41;;;;;;;6.75;4.65;;;;;;;12.50;50.23;101691.09;5032417;28;20218;-48
2022/04/26 15:25:09;;;;;;;5.05;3.80;;;;;;;12.74;50.20;101692.09;5032172;28;20184;-48
2022/04/26 15:27:36;;;;;;;8.63;4.30;;;;;;;12.51;50.85;101694.69;5031978;28;20576;-49
2022/04/26 15:30:05;;;;;;;4.65;4.07;;;;;;;12.31;50.83;101706.94;5030984;28;20214;-48
2022/04/26 15:32:30;;;;;;;6.20;4.25;;;;;;;12.06;50.67;101701.44;5032068;28;20190;-48
2022/04/26 15:34:55;;;;;;;4.00;3.70;;;;;;;12.08;51.10;101704.94;5031723;28;20184;-50
2022/04/26 15:37:24;;;;;;;4.22;3.83;;;;;;;12.10;51.80;101702.22;5031590;28;20171;-49